Lincoln, New Mexico
Current Conditions -  °F | °C
As of 2:15 AM on Monday 24 Nov 2014 (Local Time) from KSRR Reporting Station
Clear Clear  
Wind Chill: 14°   Ceiling: Unl
Heat Index: 27°   Visibility: 10mi
Dew Point:   Wind: 17mph
Humidity: 40%   Direction: 310°NW
Pressure: 30.05"   Gusts: 26mph
Location:  33.49°N, 105.39°W
Report Text: KSRR 240915Z AUTO 31015G23KT 10SM CLR M03/M15 A3005 RMK AO2
Loading
Personal Weather Stations






























Interactive Weather Map New forecast layout! Learn more

10-Day Weather Forecast

Advertisements
Track Severe Weather on mobile